createdAt,value
2018-10-06T00:00:31.312Z,99749.47
2018-10-06T00:03:04.784Z,99743.92
2018-10-06T00:05:38.211Z,99751.28
2018-10-06T00:08:12.593Z,99747.63
2018-10-06T00:10:45.265Z,99741.58
2018-10-06T00:13:17.930Z,99741.14
2018-10-06T00:15:50.767Z,99750.70
2018-10-06T00:18:23.208Z,99746.26
2018-10-06T00:20:55.995Z,99746.76
2018-10-06T00:23:31.032Z,99743.38
2018-10-06T00:26:03.604Z,99745.34
2018-10-06T00:28:38.177Z,99739.38
2018-10-06T00:31:12.186Z,99742.49
2018-10-06T00:33:45.681Z,99744.60
2018-10-06T00:36:19.989Z,99744.33
2018-10-06T00:38:52.814Z,99737.38
2018-10-06T00:41:28.348Z,99735.84
2018-10-06T00:44:01.074Z,99728.69
2018-10-06T00:46:34.159Z,99723.23
2018-10-06T00:49:06.999Z,99718.18
2018-10-06T00:51:39.668Z,99718.18
2018-10-06T00:54:12.609Z,99722.02
2018-10-06T00:56:45.129Z,99720.98
2018-10-06T00:59:17.972Z,99724.86
2018-10-06T01:01:50.869Z,99726.39
2018-10-06T01:04:23.935Z,99726.92
2018-10-06T01:06:56.707Z,99711.66
2018-10-06T01:09:29.724Z,99708.08
2018-10-06T01:12:02.249Z,99704.64
2018-10-06T01:14:34.896Z,99701.56
2018-10-06T01:17:09.907Z,99702.63
2018-10-06T01:19:43.288Z,99699.20
2018-10-06T01:22:17.500Z,99696.96
2018-10-06T01:24:50.294Z,99702.44
2018-10-06T01:27:22.869Z,99697.56
2018-10-06T01:29:55.481Z,99693.51
2018-10-06T01:32:28.260Z,99691.30
2018-10-06T01:35:02.155Z,99686.09
2018-10-06T01:37:34.708Z,99684.72
2018-10-06T01:40:07.324Z,99682.53
2018-10-06T01:42:40.195Z,99680.98
2018-10-06T01:45:14.233Z,99681.16
2018-10-06T01:47:46.956Z,99678.92
2018-10-06T01:50:24.409Z,99677.22
2018-10-06T01:52:56.908Z,99668.93
2018-10-06T01:55:29.613Z,99665.28
2018-10-06T01:58:03.046Z,99661.12
2018-10-06T02:00:35.641Z,99661.54
2018-10-06T02:03:08.486Z,99657.87
2018-10-06T02:05:41.212Z,99657.73
2018-10-06T02:08:13.780Z,99660.38
2018-10-06T02:10:46.376Z,99657.44
2018-10-06T02:13:20.196Z,99655.20
2018-10-06T02:15:52.874Z,99657.39
2018-10-06T02:18:27.633Z,99658.86
2018-10-06T02:21:00.420Z,99652.75
2018-10-06T02:23:33.041Z,99653.83
2018-10-06T02:26:05.801Z,99653.16
2018-10-06T02:28:39.161Z,99646.42
2018-10-06T02:31:13.130Z,99646.30
2018-10-06T02:33:45.750Z,99640.63
2018-10-06T02:36:19.520Z,99647.94
2018-10-06T02:38:52.068Z,99642.30
2018-10-06T02:41:24.735Z,99642.90
2018-10-06T02:44:00.337Z,99640.50
2018-10-06T02:46:32.943Z,99638.47
2018-10-06T02:49:05.605Z,99638.97
2018-10-06T02:51:38.469Z,99632.81
2018-10-06T02:54:11.017Z,99632.48
2018-10-06T02:56:43.617Z,99624.48
2018-10-06T02:59:17.880Z,99624.27
2018-10-06T03:01:51.456Z,99625.02
2018-10-06T03:04:24.045Z,99622.53
2018-10-06T03:06:56.813Z,99622.98
2018-10-06T03:09:29.393Z,99621.08
2018-10-06T03:12:02.022Z,99626.80
2018-10-06T03:14:36.328Z,99622.13
2018-10-06T03:17:09.025Z,99619.60
2018-10-06T03:19:41.696Z,99618.34
2018-10-06T03:22:14.591Z,99617.04
2018-10-06T03:24:47.072Z,99616.59
2018-10-06T03:27:21.703Z,99613.22
2018-10-06T03:29:56.369Z,99607.63
2018-10-06T03:32:30.376Z,99606.36
2018-10-06T03:35:03.020Z,99599.25
2018-10-06T03:37:35.972Z,99594.55
2018-10-06T03:40:08.561Z,99594.05
2018-10-06T03:42:41.149Z,99591.47
2018-10-06T03:45:16.966Z,99586.63
2018-10-06T03:47:50.180Z,99584.67
2018-10-06T03:50:22.729Z,99581.48
2018-10-06T03:52:55.548Z,99584.33
2018-10-06T03:55:29.410Z,99579.91
2018-10-06T03:58:03.603Z,99575.22
2018-10-06T04:00:39.019Z,99570.00
2018-10-06T04:03:13.136Z,99563.93
2018-10-06T04:05:45.874Z,99566.63
2018-10-06T04:08:18.785Z,99555.68
2018-10-06T04:10:51.438Z,99557.38
2018-10-06T04:13:25.228Z,99554.34
2018-10-06T04:15:58.372Z,99550.47
2018-10-06T04:18:31.101Z,99557.40
2018-10-06T04:21:05.625Z,99554.96
2018-10-06T04:23:39.999Z,99549.20
2018-10-06T04:26:16.059Z,99543.55
2018-10-06T04:28:48.625Z,99546.05
2018-10-06T04:31:32.819Z,99542.67
2018-10-06T04:34:05.401Z,99537.53
2018-10-06T04:36:38.267Z,99535.80
2018-10-06T04:39:12.779Z,99533.75
2018-10-06T04:41:46.375Z,99529.23
2018-10-06T04:44:19.231Z,99528.60
2018-10-06T04:46:52.247Z,99528.70
2018-10-06T04:49:24.762Z,99525.79
2018-10-06T04:51:57.414Z,99520.36
2018-10-06T04:54:30.253Z,99528.08
2018-10-06T04:57:03.001Z,99527.66
2018-10-06T04:59:35.497Z,99521.83
2018-10-06T05:02:08.536Z,99522.14
2018-10-06T05:04:41.282Z,99517.66
2018-10-06T05:07:13.892Z,99513.24
2018-10-06T05:09:49.017Z,99517.36
2018-10-06T05:12:21.670Z,99507.31
2018-10-06T05:14:54.279Z,99504.66
2018-10-06T05:17:27.356Z,99503.63
2018-10-06T05:20:00.042Z,99501.94
2018-10-06T05:22:32.924Z,99498.41
2018-10-06T05:25:05.868Z,99501.31
2018-10-06T05:27:38.561Z,99501.88
2018-10-06T05:30:13.437Z,99498.25
2018-10-06T05:32:46.445Z,99498.25
2018-10-06T05:35:21.693Z,99501.30
2018-10-06T05:37:55.195Z,99500.02
2018-10-06T05:40:29.041Z,99499.73
2018-10-06T05:43:01.618Z,99497.45
2018-10-06T05:45:34.872Z,99500.69
2018-10-06T05:48:07.757Z,99503.25
2018-10-06T05:50:40.437Z,99503.59
2018-10-06T05:53:13.147Z,99498.63
2018-10-06T05:55:46.375Z,99497.24
2018-10-06T05:58:18.891Z,99501.19
2018-10-06T06:00:51.320Z,99505.97
2018-10-06T06:03:24.457Z,99506.09
2018-10-06T06:05:57.322Z,99505.02
2018-10-06T06:08:29.788Z,99508.98
2018-10-06T06:11:02.601Z,99505.70
2018-10-06T06:13:36.105Z,99509.56
2018-10-06T06:16:08.630Z,99506.20
2018-10-06T06:18:44.732Z,99504.91
2018-10-06T06:21:17.990Z,99500.97
2018-10-06T06:23:50.650Z,99500.86
2018-10-06T06:26:23.760Z,99503.20
2018-10-06T06:28:59.005Z,99501.91
2018-10-06T06:31:31.937Z,99498.49
2018-10-06T06:34:08.665Z,99499.13
2018-10-06T06:36:41.379Z,99494.88
2018-10-06T06:39:14.102Z,99491.16
2018-10-06T06:41:47.065Z,99486.02
2018-10-06T06:44:20.162Z,99484.72
2018-10-06T06:46:53.671Z,99485.86
2018-10-06T06:49:26.640Z,99482.47
2018-10-06T06:51:59.275Z,99478.38
2018-10-06T06:54:33.457Z,99475.87
2018-10-06T06:57:06.619Z,99476.48
2018-10-06T06:59:42.100Z,99475.73
2018-10-06T07:02:15.509Z,99479.59
2018-10-06T07:04:48.136Z,99476.77
2018-10-06T07:07:21.587Z,99472.98
2018-10-06T07:09:54.206Z,99467.07
2018-10-06T07:12:28.704Z,99466.44
2018-10-06T07:15:04.774Z,99461.58
2018-10-06T07:17:37.826Z,99461.53
2018-10-06T07:20:10.481Z,99461.45
2018-10-06T07:22:45.756Z,99455.11
2018-10-06T07:25:19.097Z,99447.78
2018-10-06T07:27:53.366Z,99448.69
2018-10-06T07:30:27.998Z,99448.25
2018-10-06T07:33:01.544Z,99448.14
2018-10-06T07:35:34.493Z,99448.72
2018-10-06T07:38:09.749Z,99444.59
2018-10-06T07:40:44.361Z,99446.30
2018-10-06T07:43:17.934Z,99445.11
2018-10-06T07:45:51.388Z,99444.15
2018-10-06T07:48:24.961Z,99449.39
2018-10-06T07:50:57.567Z,99450.45
2018-10-06T07:53:34.048Z,99442.94
2018-10-06T07:56:07.816Z,99440.11
2018-10-06T07:58:42.953Z,99443.47
2018-10-06T08:01:16.281Z,99441.43
2018-10-06T08:03:50.108Z,99446.14
2018-10-06T08:06:23.166Z,99442.05
2018-10-06T08:08:56.648Z,99440.45
2018-10-06T08:11:29.282Z,99440.00
2018-10-06T08:14:01.879Z,99438.53
2018-10-06T08:16:35.812Z,99435.30
2018-10-06T08:19:08.382Z,99439.83
2018-10-06T08:21:42.787Z,99437.97
2018-10-06T08:24:19.829Z,99438.94
2018-10-06T08:26:56.254Z,99436.50
2018-10-06T08:29:28.981Z,99437.05
2018-10-06T08:32:02.850Z,99435.93
2018-10-06T08:34:37.189Z,99436.16
2018-10-06T08:37:10.832Z,99429.97
2018-10-06T08:39:45.415Z,99426.55
2018-10-06T08:42:18.038Z,99416.23
2018-10-06T08:44:51.380Z,99415.78
2018-10-06T08:47:24.816Z,99409.08
2018-10-06T08:49:59.395Z,99406.34
2018-10-06T08:52:35.940Z,99414.71
2018-10-06T08:55:09.579Z,99408.31
2018-10-06T08:57:42.979Z,99408.76
2018-10-06T09:00:18.262Z,99403.23
2018-10-06T09:02:52.885Z,99399.91
2018-10-06T09:05:28.296Z,99400.48
2018-10-06T09:08:05.225Z,99403.19
2018-10-06T09:10:38.514Z,99398.95
2018-10-06T09:13:16.109Z,99393.58
2018-10-06T09:15:49.557Z,99384.00
2018-10-06T09:18:23.120Z,99384.59
2018-10-06T09:20:56.002Z,99382.43
2018-10-06T09:23:29.494Z,99383.25
2018-10-06T09:26:02.255Z,99382.22
2018-10-06T09:28:37.205Z,99384.35
2018-10-06T09:31:10.621Z,99390.81
2018-10-06T09:33:44.289Z,99390.39
2018-10-06T09:36:19.193Z,99390.96
2018-10-06T09:38:52.199Z,99391.02
2018-10-06T09:41:24.768Z,99389.16
2018-10-06T09:43:58.059Z,99385.56
2018-10-06T09:46:31.371Z,99380.11
2018-10-06T09:49:04.262Z,99379.77
2018-10-06T09:51:37.360Z,99372.55
2018-10-06T09:54:12.735Z,99368.64
2018-10-06T09:56:45.181Z,99370.70
2018-10-06T09:59:18.413Z,99367.17
2018-10-06T10:02:08.928Z,99365.61
2018-10-06T10:04:43.017Z,99362.61
2018-10-06T10:07:16.173Z,99363.53
2018-10-06T10:09:51.537Z,99358.88
2018-10-06T10:12:26.070Z,99356.70
2018-10-06T10:15:00.593Z,99352.40
2018-10-06T10:17:34.817Z,99343.16
2018-10-06T10:20:07.220Z,99339.46
2018-10-06T10:22:43.041Z,99348.09
2018-10-06T10:25:17.822Z,99343.38
2018-10-06T10:27:53.313Z,99338.27
2018-10-06T10:30:26.526Z,99336.74
2018-10-06T10:32:59.509Z,99335.92
2018-10-06T10:35:32.340Z,99335.88
2018-10-06T10:38:06.122Z,99331.29
2018-10-06T10:40:40.960Z,99325.20
2018-10-06T10:43:16.996Z,99321.63
2018-10-06T10:45:49.914Z,99321.80
2018-10-06T10:48:24.061Z,99320.02
2018-10-06T10:50:58.408Z,99316.86
2018-10-06T10:53:32.093Z,99317.00
2018-10-06T10:56:09.533Z,99307.84
2018-10-06T10:58:57.925Z,99314.85
2018-10-06T11:01:36.105Z,99315.79
2018-10-06T11:04:24.727Z,99309.63
2018-10-06T11:07:00.888Z,99312.84
2018-10-06T11:09:34.554Z,99307.44
2018-10-06T11:12:10.308Z,99305.27
2018-10-06T11:14:44.002Z,99301.74
2018-10-06T11:17:16.719Z,99295.83
2018-10-06T11:19:54.569Z,99292.86
2018-10-06T11:22:28.205Z,99283.41
2018-10-06T11:25:01.618Z,99285.55
2018-10-06T11:27:39.566Z,99284.89
2018-10-06T11:30:14.809Z,99274.30
2018-10-06T11:32:47.454Z,99270.38
2018-10-06T11:35:22.324Z,99269.20
2018-10-06T11:37:58.863Z,99267.34
2018-10-06T11:40:33.285Z,99268.22
2018-10-06T11:43:07.308Z,99264.96
2018-10-06T11:45:42.673Z,99262.44
2018-10-06T11:48:17.980Z,99260.17
2018-10-06T11:50:52.845Z,99255.70
2018-10-06T11:53:31.830Z,99256.33
2018-10-06T11:56:04.576Z,99247.66
2018-10-06T11:58:39.540Z,99246.85
2018-10-06T12:01:12.216Z,99237.45
2018-10-06T12:03:46.645Z,99239.13
2018-10-06T12:06:21.152Z,99228.97
2018-10-06T12:08:53.837Z,99226.30
2018-10-06T12:11:28.005Z,99222.51
2018-10-06T12:14:04.339Z,99220.58
2018-10-06T12:16:39.751Z,99218.51
2018-10-06T12:19:13.013Z,99213.25
2018-10-06T12:21:48.139Z,99209.83
2018-10-06T12:24:20.926Z,99211.05
2018-10-06T12:26:53.981Z,99209.22
2018-10-06T12:29:29.587Z,99205.63
2018-10-06T12:32:04.060Z,99204.45
2018-10-06T12:34:37.986Z,99206.02
2018-10-06T12:37:12.476Z,99202.57
2018-10-06T12:39:45.802Z,99197.94
2018-10-06T12:42:18.674Z,99203.89
2018-10-06T12:44:56.736Z,99197.52
2018-10-06T12:47:30.210Z,99192.80
2018-10-06T12:50:07.764Z,99193.19
2018-10-06T12:52:40.863Z,99190.16
2018-10-06T12:55:14.458Z,99188.17
2018-10-06T12:57:47.810Z,99180.08
2018-10-06T13:00:20.929Z,99179.70
2018-10-06T13:02:53.929Z,99182.72
2018-10-06T13:05:27.145Z,99172.32
2018-10-06T13:08:01.296Z,99171.23
2018-10-06T13:10:35.180Z,99165.21
2018-10-06T13:13:08.064Z,99166.89
2018-10-06T13:15:41.578Z,99167.53
2018-10-06T13:18:18.055Z,99166.16
2018-10-06T13:20:52.578Z,99160.20
2018-10-06T13:23:27.139Z,99156.48
2018-10-06T13:25:59.665Z,99163.52
2018-10-06T13:28:32.483Z,99156.09
2018-10-06T13:31:05.620Z,99155.69
2018-10-06T13:33:38.272Z,99151.56
2018-10-06T13:36:14.204Z,99154.55
2018-10-06T13:38:48.401Z,99151.40
2018-10-06T13:41:23.000Z,99151.08
2018-10-06T13:43:56.333Z,99151.69
2018-10-06T13:46:29.898Z,99145.97
2018-10-06T13:49:04.555Z,99149.81
2018-10-06T13:51:38.855Z,99145.38
2018-10-06T13:54:13.134Z,99144.83
2018-10-06T13:56:46.898Z,99137.73
2018-10-06T13:59:19.765Z,99135.56
2018-10-06T14:01:56.386Z,99131.78
2018-10-06T14:04:30.068Z,99133.28
2018-10-06T14:07:08.760Z,99127.70
2018-10-06T14:09:42.616Z,99121.08
2018-10-06T14:12:16.076Z,99122.73
2018-10-06T14:14:52.142Z,99118.90
2018-10-06T14:17:25.432Z,99109.80
2018-10-06T14:20:00.908Z,99107.42
2018-10-06T14:22:34.441Z,99103.36
2018-10-06T14:25:08.392Z,99096.93
2018-10-06T14:27:43.553Z,99090.72
2018-10-06T14:30:16.680Z,99087.23
2018-10-06T14:32:49.468Z,99084.00
2018-10-06T14:35:23.793Z,99080.86
2018-10-06T14:37:57.044Z,99079.55
2018-10-06T14:40:32.684Z,99076.52
2018-10-06T14:43:07.751Z,99079.42
2018-10-06T14:45:44.343Z,99074.80
2018-10-06T14:48:18.005Z,99079.13
2018-10-06T14:53:26.042Z,99071.80
2018-10-06T14:56:01.442Z,99072.31
2018-10-06T14:58:34.762Z,99067.97
2018-10-06T15:01:14.650Z,99066.27
2018-10-06T15:03:48.764Z,99066.03
2018-10-06T15:06:25.245Z,99062.19
2018-10-06T15:09:06.095Z,99066.17
2018-10-06T15:11:41.097Z,99065.84
2018-10-06T15:14:15.456Z,99065.43
2018-10-06T15:16:49.122Z,99061.97
2018-10-06T15:19:22.552Z,99057.14
2018-10-06T15:21:56.691Z,99056.15
2018-10-06T15:24:33.613Z,99054.09
2018-10-06T15:27:10.383Z,99053.02
2018-10-06T15:29:45.514Z,99052.45
2018-10-06T15:32:23.065Z,99058.39
2018-10-06T15:34:55.548Z,99055.98
2018-10-06T15:37:28.716Z,99053.89
2018-10-06T15:40:01.334Z,99061.77
2018-10-06T15:42:35.227Z,99056.59
2018-10-06T15:45:06.893Z,99055.36
2018-10-06T15:47:43.170Z,99057.27
2018-10-06T15:50:19.679Z,99049.73
2018-10-06T15:52:59.509Z,99055.03
2018-10-06T15:55:35.380Z,99049.49
2018-10-06T15:58:09.341Z,99056.46
2018-10-06T16:00:44.180Z,99060.53
2018-10-06T16:03:16.940Z,99062.63
2018-10-06T16:06:12.249Z,99056.02
2018-10-06T16:09:10.533Z,99057.48
2018-10-06T16:12:12.146Z,99059.12
2018-10-06T16:14:50.085Z,99060.91
2018-10-06T16:17:25.350Z,99059.98
2018-10-06T16:20:02.184Z,99059.97
2018-10-06T16:22:36.918Z,99058.55
2018-10-06T16:25:11.568Z,99057.45
2018-10-06T16:27:46.760Z,99060.95
2018-10-06T16:30:28.233Z,99057.89
2018-10-06T16:33:03.204Z,99057.20
2018-10-06T16:35:36.780Z,99066.78
2018-10-06T16:38:09.305Z,99061.97
2018-10-06T16:40:45.552Z,99063.96
2018-10-06T16:43:20.563Z,99060.39
2018-10-06T16:45:56.068Z,99059.48
2018-10-06T16:48:29.453Z,99064.00
2018-10-06T16:51:02.866Z,99059.67
2018-10-06T16:53:37.576Z,99068.59
2018-10-06T16:56:11.398Z,99062.83
2018-10-06T16:58:45.333Z,99062.70
2018-10-06T17:01:18.532Z,99062.34
2018-10-06T17:03:51.078Z,99068.98
2018-10-06T17:06:25.278Z,99074.13
2018-10-06T17:09:00.308Z,99077.51
2018-10-06T17:11:33.646Z,99076.95
2018-10-06T17:14:08.670Z,99077.73
2018-10-06T17:16:44.780Z,99079.64
2018-10-06T17:19:18.533Z,99081.69
2018-10-06T17:21:52.949Z,99085.35
2018-10-06T17:24:29.915Z,99090.78
2018-10-06T17:27:02.429Z,99094.31
2018-10-06T17:29:35.768Z,99100.70
2018-10-06T17:32:08.804Z,99099.25
2018-10-06T17:34:44.824Z,99107.13
2018-10-06T17:37:20.427Z,99110.80
2018-10-06T17:39:55.041Z,99118.57
2018-10-06T17:42:29.089Z,99123.31
2018-10-06T17:45:03.555Z,99127.73
2018-10-06T17:47:36.860Z,99133.06
2018-10-06T17:50:10.993Z,99139.03
2018-10-06T17:52:45.804Z,99146.86
2018-10-06T17:55:26.729Z,99143.80
2018-10-06T17:58:03.543Z,99152.86
2018-10-06T18:00:40.214Z,99156.72
2018-10-06T18:03:14.173Z,99154.78
2018-10-06T18:05:47.342Z,99153.70
2018-10-06T18:08:20.531Z,99151.98
2018-10-06T18:11:03.798Z,99152.17
2018-10-06T18:13:37.162Z,99151.58
2018-10-06T18:16:10.343Z,99152.05
2018-10-06T18:18:44.319Z,99150.70
2018-10-06T18:21:17.084Z,99151.62
2018-10-06T18:23:49.610Z,99156.66
2018-10-06T18:26:22.550Z,99160.00
2018-10-06T18:28:56.138Z,99160.04
2018-10-06T18:31:29.670Z,99168.52
2018-10-06T18:34:02.942Z,99164.63
2018-10-06T18:36:37.535Z,99172.84
2018-10-06T18:39:10.516Z,99173.77
2018-10-06T18:41:45.546Z,99177.45
2018-10-06T18:44:18.305Z,99171.04
2018-10-06T18:46:50.913Z,99173.94
2018-10-06T18:49:27.210Z,99177.22
2018-10-06T18:52:03.789Z,99180.65
2018-10-06T18:54:43.809Z,99182.47
2018-10-06T18:57:22.041Z,99186.55
2018-10-06T18:59:55.243Z,99189.68
2018-10-06T19:02:32.390Z,99192.85
2018-10-06T19:05:07.805Z,99198.23
2018-10-06T19:07:47.171Z,99202.58
2018-10-06T19:10:22.590Z,99205.06
2018-10-06T19:12:57.381Z,99211.64
2018-10-06T19:15:33.813Z,99215.03
2018-10-06T19:18:08.823Z,99217.52
2018-10-06T19:20:43.317Z,99217.22
2018-10-06T19:23:18.528Z,99223.72
2018-10-06T19:25:51.415Z,99224.73
2018-10-06T19:28:31.902Z,99222.61
2018-10-06T19:31:08.871Z,99219.34
2018-10-06T19:33:46.728Z,99222.42
2018-10-06T19:36:21.794Z,99223.53
2018-10-06T19:38:55.329Z,99222.87
2018-10-06T19:41:31.560Z,99221.95
2018-10-06T19:44:08.017Z,99223.41
2018-10-06T19:46:50.056Z,99222.54
2018-10-06T19:49:25.491Z,99224.98
2018-10-06T19:52:03.832Z,99225.23
2018-10-06T19:54:39.742Z,99226.16
2018-10-06T19:57:15.634Z,99221.31
2018-10-06T19:59:52.618Z,99227.27
2018-10-06T20:02:30.654Z,99227.70
2018-10-06T20:05:06.515Z,99229.64
2018-10-06T20:07:44.328Z,99231.16
2018-10-06T20:10:21.703Z,99236.77
2018-10-06T20:13:00.794Z,99236.17
2018-10-06T20:15:35.429Z,99244.55
2018-10-06T20:18:10.000Z,99245.53
2018-10-06T20:20:48.437Z,99247.75
2018-10-06T20:23:23.797Z,99259.03
2018-10-06T20:25:59.605Z,99260.80
2018-10-06T20:28:34.591Z,99256.67
2018-10-06T20:31:10.314Z,99270.47
2018-10-06T20:33:44.628Z,99277.81
2018-10-06T20:36:18.971Z,99280.16
2018-10-06T20:38:53.676Z,99282.66
2018-10-06T20:41:27.984Z,99281.28
2018-10-06T20:44:03.022Z,99291.04
2018-10-06T20:46:38.657Z,99293.33
2018-10-06T20:49:12.806Z,99297.34
2018-10-06T20:51:47.676Z,99299.41
2018-10-06T20:54:27.569Z,99300.58
2018-10-06T20:57:00.967Z,99307.20
2018-10-06T20:59:35.988Z,99304.26
2018-10-06T21:02:15.786Z,99307.56
2018-10-06T21:04:53.170Z,99307.64
2018-10-06T21:07:28.767Z,99313.68
2018-10-06T21:10:03.273Z,99311.10
2018-10-06T21:12:37.600Z,99309.88
2018-10-06T21:15:13.552Z,99307.66
2018-10-06T21:17:47.797Z,99305.15
2018-10-06T21:20:24.510Z,99305.60
2018-10-06T21:22:57.320Z,99305.09
2018-10-06T21:25:31.242Z,99302.70
2018-10-06T21:28:04.573Z,99310.78
2018-10-06T21:30:42.306Z,99311.14
2018-10-06T21:33:14.835Z,99312.51
2018-10-06T21:35:48.061Z,99321.58
2018-10-06T21:38:40.975Z,99326.11
2018-10-06T21:41:14.702Z,99328.52
2018-10-06T21:43:49.738Z,99338.42
2018-10-06T21:46:24.597Z,99346.02
2018-10-06T21:49:00.334Z,99351.50
2018-10-06T21:51:36.020Z,99353.16
2018-10-06T21:54:10.220Z,99359.14
2018-10-06T21:56:44.300Z,99356.70
2018-10-06T21:59:18.544Z,99362.05
2018-10-06T22:01:58.824Z,99367.13
2018-10-06T22:04:33.616Z,99367.30
2018-10-06T22:07:07.114Z,99364.56
2018-10-06T22:09:42.391Z,99374.30
2018-10-06T22:12:16.091Z,99385.48
2018-10-06T22:14:49.901Z,99383.15
2018-10-06T22:17:26.624Z,99380.01
2018-10-06T22:19:59.770Z,99386.98
2018-10-06T22:22:37.511Z,99385.88
2018-10-06T22:25:10.849Z,99387.89
2018-10-06T22:27:44.529Z,99385.83
2018-10-06T22:30:17.777Z,99384.94
2018-10-06T22:32:50.861Z,99380.04
2018-10-06T22:35:24.436Z,99386.91
2018-10-06T22:37:57.483Z,99384.59
2018-10-06T22:40:30.042Z,99375.37
2018-10-06T22:43:02.609Z,99372.94
2018-10-06T22:45:37.257Z,99363.13
2018-10-06T22:48:10.622Z,99365.39
2018-10-06T22:50:45.284Z,99359.45
2018-10-06T22:53:19.470Z,99361.08
2018-10-06T22:55:52.092Z,99362.17
2018-10-06T22:58:25.637Z,99354.85
2018-10-06T23:01:00.574Z,99359.03
2018-10-06T23:03:35.081Z,99365.02
2018-10-06T23:06:08.800Z,99367.27
2018-10-06T23:08:44.011Z,99359.86
2018-10-06T23:11:17.633Z,99353.66
2018-10-06T23:13:50.293Z,99346.68
2018-10-06T23:16:23.931Z,99348.74
2018-10-06T23:18:58.468Z,99352.06
2018-10-06T23:21:33.003Z,99354.12
2018-10-06T23:24:08.015Z,99358.73
2018-10-06T23:26:40.996Z,99361.28
2018-10-06T23:29:13.985Z,99365.03
2018-10-06T23:31:47.812Z,99363.81
2018-10-06T23:34:21.454Z,99371.22
2018-10-06T23:36:54.572Z,99369.00
2018-10-06T23:39:27.955Z,99371.55
2018-10-06T23:42:01.787Z,99382.59
2018-10-06T23:44:34.401Z,99388.30
2018-10-06T23:47:08.383Z,99395.52
2018-10-06T23:49:42.724Z,99399.39
2018-10-06T23:52:16.858Z,99409.94
2018-10-06T23:54:49.832Z,99417.52
2018-10-06T23:57:22.316Z,99423.86
2018-10-06T23:59:55.016Z,99433.03
